Time;durP1;ratioP1;P1;durP2;ratioP2;P2;SDS_P1;SDS_P2;PMS_P1;PMS_P2;Temp;Humidity;BMP_temperature;BMP_pressure;BME280_temperature;BME280_humidity;BME280_pressure;Samples;Min_cycle;Max_cycle;Signal;HPM_P1;HPM_P2
2021/03/27 00:01:09;;;;;;;4.03;3.42;;;6.20;99.90;;;;;;5029138;28;20108;-80
2021/03/27 00:03:43;;;;;;;;;;;6.20;99.90;;;;;;5029848;28;20045;-80
2021/03/27 00:06:36;;;;;;;5.05;2.85;;;6.20;99.90;;;;;;5045815;28;19916;-81
2021/03/27 00:09:39;;;;;;;5.03;2.67;;;6.10;99.90;;;;;;5045816;28;20061;-80
2021/03/27 00:12:24;;;;;;;5.03;2.35;;;6.10;99.90;;;;;;5029399;28;20036;-80
2021/03/27 00:14:56;;;;;;;3.50;1.70;;;6.00;99.90;;;;;;5045713;28;20033;-81
2021/03/27 00:17:41;;;;;;;4.25;2.10;;;6.00;99.90;;;;;;5029108;28;20029;-80
2021/03/27 00:20:47;;;;;;;3.58;1.23;;;6.00;99.90;;;;;;5062252;28;20072;-80
2021/03/27 00:23:21;;;;;;;2.00;0.90;;;6.00;99.90;;;;;;5015992;28;20067;-81
2021/03/27 00:25:59;;;;;;;3.45;0.63;;;5.90;99.90;;;;;;5045434;28;20026;-80
2021/03/27 00:28:39;;;;;;;2.40;0.60;;;5.90;99.90;;;;;;5045528;28;20033;-81
2021/03/27 00:31:16;;;;;;;1.92;0.40;;;5.80;99.90;;;;;;5062084;28;20078;-80
2021/03/27 00:33:50;;;;;;;1.05;0.30;;;5.80;99.90;;;;;;5046758;28;20037;-81
2021/03/27 00:36:23;;;;;;;1.30;0.30;;;5.70;99.90;;;;;;5045131;28;20065;-80
2021/03/27 00:39:01;;;;;;;0.88;0.20;;;5.70;99.90;;;;;;5045375;28;20068;-81
2021/03/27 00:41:36;;;;;;;0.77;0.10;;;5.70;99.90;;;;;;5045129;28;20045;-80
2021/03/27 00:44:05;;;;;;;0.30;0.17;;;5.70;99.90;;;;;;5045157;28;20030;-80
2021/03/27 00:46:33;;;;;;;0.25;0.10;;;5.70;99.90;;;;;;5061896;28;20172;-80
2021/03/27 00:49:06;;;;;;;0.85;0.10;;;5.60;99.90;;;;;;5061689;28;20034;-80
2021/03/27 00:51:48;;;;;;;0.25;0.10;;;5.70;99.90;;;;;;5044858;28;20037;-80
2021/03/27 00:54:30;;;;;;;0.82;0.10;;;5.70;99.90;;;;;;5028435;28;20049;-80
2021/03/27 00:57:07;;;;;;;1.95;0.20;;;5.70;99.90;;;;;;5028659;28;20036;-80
2021/03/27 00:59:39;;;;;;;0.90;0.25;;;5.70;99.90;;;;;;5044980;28;20029;-80
2021/03/27 01:02:15;;;;;;;1.05;0.30;;;5.60;99.90;;;;;;5044772;28;20045;-80
2021/03/27 01:05:04;;;;;;;1.73;0.20;;;5.60;99.90;;;;;;5044988;28;20071;-80
2021/03/27 01:07:55;;;;;;;0.95;0.30;;;5.60;99.90;;;;;;5057756;22;20053;-80
2021/03/27 01:10:51;;;;;;;1.25;0.30;;;5.60;99.90;;;;;;5079528;28;20044;-80
2021/03/27 01:13:46;;;;;;;1.23;0.50;;;5.60;99.90;;;;;;5079579;28;20034;-82
2021/03/27 01:16:17;;;;;;;2.78;0.40;;;5.70;99.90;;;;;;5081440;28;20025;-80
2021/03/27 01:18:46;;;;;;;2.25;0.57;;;5.70;99.90;;;;;;5048486;28;20048;-80
2021/03/27 01:21:17;;;;;;;1.63;0.60;;;5.70;99.90;;;;;;5064765;28;20041;-80
2021/03/27 01:23:43;;;;;;;3.25;0.85;;;5.70;99.90;;;;;;5066270;28;20100;-80
2021/03/27 01:26:23;;;;;;;2.40;1.05;;;5.70;99.90;;;;;;5064650;28;20044;-80
2021/03/27 01:29:02;;;;;;;3.13;1.00;;;5.70;99.90;;;;;;5048501;28;20029;-80
2021/03/27 01:31:51;;;;;;;2.30;0.88;;;5.80;99.90;;;;;;5048178;28;20033;-80
2021/03/27 01:34:42;;;;;;;3.88;0.93;;;5.80;99.90;;;;;;5064768;28;20104;-81
2021/03/27 01:37:24;;;;;;;3.55;1.10;;;5.70;99.90;;;;;;5048055;28;20028;-80
2021/03/27 01:40:22;;;;;;;2.65;0.80;;;5.70;99.90;;;;;;5048012;28;20033;-81
2021/03/27 01:42:58;;;;;;;3.25;1.42;;;5.70;99.90;;;;;;5044745;28;20132;-79
2021/03/27 01:45:48;;;;;;;4.03;1.20;;;5.70;99.90;;;;;;5047843;28;20033;-80
2021/03/27 01:48:38;;;;;;;4.63;1.60;;;5.70;99.90;;;;;;5048718;28;20511;-80
2021/03/27 01:51:17;;;;;;;4.03;1.77;;;5.70;99.90;;;;;;5064538;28;20021;-80
2021/03/27 01:54:08;;;;;;;4.78;1.88;;;5.70;99.90;;;;;;5080731;28;20045;-80
2021/03/27 01:57:06;;;;;;;5.80;3.83;;;5.70;99.90;;;;;;5080985;28;20025;-80
2021/03/27 01:59:37;;;;;;;9.63;5.35;;;5.70;99.90;;;;;;5081117;28;20041;-80
2021/03/27 02:02:13;;;;;;;9.65;5.03;;;5.70;99.90;;;;;;5065377;28;20044;-80
2021/03/27 02:07:56;;;;;;;7.28;4.78;;;5.80;99.90;;;;;;4967047;28;20050;-81
2021/03/27 02:10:56;;;;;;;12.00;4.55;;;5.80;99.90;;;;;;4984201;28;20043;-80
2021/03/27 02:13:34;;;;;;;8.00;5.55;;;5.80;99.90;;;;;;4984042;28;20070;-80
2021/03/27 02:16:18;;;;;;;11.35;6.05;;;5.80;99.90;;;;;;4983964;28;20049;-80
2021/03/27 02:19:20;;;;;;;13.30;6.63;;;5.80;99.90;;;;;;4951937;28;20043;-80
2021/03/27 02:22:02;;;;;;;9.45;5.25;;;5.90;99.90;;;;;;4951789;28;20093;-80
2021/03/27 02:24:35;;;;;;;16.48;7.72;;;5.90;99.90;;;;;;4967698;28;20034;-80
2021/03/27 02:27:12;;;;;;;10.27;6.00;;;5.90;99.90;;;;;;4970751;28;20561;-80
2021/03/27 02:29:56;;;;;;;10.98;5.32;;;5.90;99.90;;;;;;4971775;28;20035;-80
2021/03/27 02:32:27;;;;;;;6.65;4.45;;;5.90;99.90;;;;;;4955478;28;20138;-80
2021/03/27 02:34:54;;;;;;;8.90;5.45;;;5.90;99.90;;;;;;4971543;28;20126;-80
2021/03/27 02:37:38;;;;;;;10.32;5.13;;;5.90;99.90;;;;;;4955492;28;20130;-80
2021/03/27 02:40:21;;;;;;;9.52;4.45;;;6.00;99.90;;;;;;4971339;28;20031;-80
2021/03/27 02:42:58;;;;;;;8.70;5.28;;;6.00;99.90;;;;;;4955208;28;20034;-80
2021/03/27 02:45:28;;;;;;;11.75;5.70;;;5.90;99.90;;;;;;5034737;28;20033;-80
2021/03/27 02:47:58;;;;;;;;;;;5.90;99.90;;;;;;5067786;28;20066;-80
2021/03/27 02:50:52;;;;;;;9.35;4.93;;;5.80;99.90;;;;;;5050858;28;19908;-80
2021/03/27 02:53:32;;;;;;;10.68;5.85;;;5.80;99.90;;;;;;5084118;28;20037;-80
2021/03/27 02:56:24;;;;;;;10.82;5.57;;;5.80;99.90;;;;;;5067380;28;20033;-79
2021/03/27 02:59:02;;;;;;;10.90;5.25;;;5.70;99.90;;;;;;5084027;28;20049;-79
2021/03/27 03:01:57;;;;;;;9.50;4.55;;;5.70;99.90;;;;;;5084185;28;20045;-80
2021/03/27 03:04:50;;;;;;;13.23;6.20;;;5.70;99.90;;;;;;5083784;28;20051;-80
2021/03/27 03:07:25;;;;;;;11.32;5.13;;;5.70;99.90;;;;;;5083658;28;20044;-79
2021/03/27 03:09:59;;;;;;;12.50;5.60;;;5.70;99.90;;;;;;5083899;28;20391;-79
2021/03/27 03:12:36;;;;;;;8.50;5.50;;;5.60;99.90;;;;;;5083906;28;20037;-79
2021/03/27 03:15:13;;;;;;;11.40;5.28;;;5.60;99.90;;;;;;5068295;28;20066;-79
2021/03/27 03:17:49;;;;;;;13.20;5.22;;;5.60;99.90;;;;;;5083654;28;20107;-79
2021/03/27 03:20:43;;;;;;;10.02;4.97;;;5.60;99.90;;;;;;5050166;28;20041;-80
2021/03/27 03:23:14;;;;;;;12.88;5.15;;;5.40;99.90;;;;;;5066884;28;20040;-79
2021/03/27 03:25:47;;;;;;;;;;;5.40;99.90;;;;;;5050549;28;20035;-79
2021/03/27 03:28:43;;;;;;;11.13;5.03;;;5.40;99.90;;;;;;5050100;28;19919;-79
2021/03/27 03:31:29;;;;;;;9.65;4.47;;;5.30;99.90;;;;;;5050062;28;20033;-79
2021/03/27 03:34:16;;;;;;;12.40;4.95;;;5.30;99.90;;;;;;5066475;28;20545;-79
2021/03/27 03:36:55;;;;;;;10.80;4.00;;;5.30;99.90;;;;;;5049424;28;20033;-79
2021/03/27 03:39:33;;;;;;;10.93;5.37;;;5.20;99.90;;;;;;5049833;28;20487;-79
2021/03/27 03:42:07;;;;;;;13.20;4.85;;;5.30;99.90;;;;;;5066505;28;20310;-79
2021/03/27 03:44:42;;;;;;;9.98;4.88;;;5.40;99.90;;;;;;5049679;28;20055;-79
2021/03/27 03:47:40;;;;;;;14.88;6.40;;;5.40;99.90;;;;;;5049759;28;20101;-79
2021/03/27 03:50:23;;;;;;;11.10;6.07;;;5.50;99.90;;;;;;5049619;28;20029;-80
2021/03/27 03:53:00;;;;;;;14.45;6.40;;;5.50;99.90;;;;;;5083325;28;20059;-79
2021/03/27 03:55:32;;;;;;;17.33;7.60;;;5.60;99.90;;;;;;5082863;28;20052;-79
2021/03/27 03:58:06;;;;;;;19.17;7.18;;;5.70;99.90;;;;;;5082973;28;20033;-80
2021/03/27 04:00:43;;;;;;;16.13;7.07;;;5.70;99.90;;;;;;5082758;28;20052;-79
2021/03/27 04:03:23;;;;;;;20.38;6.32;;;5.70;99.90;;;;;;5082977;28;20040;-80
2021/03/27 04:06:00;;;;;;;11.30;6.20;;;5.60;99.90;;;;;;5082769;28;20025;-80
2021/03/27 04:08:51;;;;;;;13.75;6.63;;;5.60;99.90;;;;;;5082606;28;20045;-80
2021/03/27 04:11:39;;;;;;;14.50;5.85;;;5.50;99.90;;;;;;5082474;28;20040;-79
2021/03/27 04:14:43;;;;;;;17.52;6.25;;;5.50;99.90;;;;;;5082287;28;20469;-80
2021/03/27 04:17:33;;;;;;;13.45;5.68;;;5.60;99.90;;;;;;5082305;28;20029;-80
2021/03/27 04:20:18;;;;;;;9.88;4.47;;;5.60;99.90;;;;;;5040078;28;20044;-80
2021/03/27 04:23:08;;;;;;;11.32;4.70;;;5.60;99.90;;;;;;5065683;28;20036;-80
2021/03/27 04:25:35;;;;;;;;;;;5.60;99.90;;;;;;5049086;28;20033;-80
2021/03/27 04:28:18;;;;;;;9.82;5.53;;;5.60;99.90;;;;;;5049068;28;19908;-79
2021/03/27 04:31:03;;;;;;;14.82;5.60;;;5.70;99.90;;;;;;5065519;28;20055;-80
2021/03/27 04:34:08;;;;;;;10.25;4.55;;;5.70;99.90;;;;;;5065532;28;20094;-80
2021/03/27 04:37:09;;;;;;;11.77;3.88;;;5.70;99.90;;;;;;5065358;28;20056;-80
2021/03/27 04:39:46;;;;;;;10.73;3.08;;;5.70;99.90;;;;;;5054693;28;20060;-80
2021/03/27 04:42:34;;;;;;;9.52;3.28;;;5.60;99.90;;;;;;5048536;28;20546;-80
2021/03/27 04:45:12;;;;;;;7.68;3.53;;;5.60;99.90;;;;;;5048422;28;20029;-80
2021/03/27 04:47:45;;;;;;;14.68;3.45;;;5.50;99.90;;;;;;5048505;28;20052;-80
2021/03/27 04:50:40;;;;;;;7.93;3.47;;;5.50;99.90;;;;;;5047810;28;20029;-79
2021/03/27 04:53:26;;;;;;;11.40;3.78;;;5.40;99.90;;;;;;5065168;28;20033;-79
2021/03/27 04:56:08;;;;;;;9.63;2.92;;;5.50;99.90;;;;;;5081523;28;20063;-80
2021/03/27 04:58:48;;;;;;;9.05;2.55;;;5.60;99.90;;;;;;5081879;28;20096;-80
2021/03/27 05:01:45;;;;;;;9.65;2.35;;;5.60;99.90;;;;;;5081392;28;20041;-80
2021/03/27 05:04:24;;;;;;;10.38;2.60;;;5.50;99.90;;;;;;5081536;28;20039;-80
2021/03/27 05:07:02;;;;;;;12.25;2.25;;;5.50;99.90;;;;;;5081327;28;20136;-80
2021/03/27 05:09:56;;;;;;;15.05;2.90;;;5.50;99.90;;;;;;5064840;28;20033;-79
2021/03/27 05:12:43;;;;;;;11.38;2.58;;;5.50;99.90;;;;;;5081406;28;20040;-79
2021/03/27 05:15:20;;;;;;;7.30;2.00;;;5.60;99.90;;;;;;5081195;28;20040;-80
2021/03/27 05:17:46;;;;;;;7.82;2.50;;;5.60;99.90;;;;;;5081275;28;20029;-80
2021/03/27 05:20:31;;;;;;;10.77;1.98;;;5.70;99.90;;;;;;5047813;28;20043;-80
2021/03/27 05:23:22;;;;;;;15.07;2.47;;;5.70;99.90;;;;;;5047867;28;20079;-79
2021/03/27 05:25:53;;;;;;;7.20;1.42;;;5.70;99.90;;;;;;5047670;28;20086;-79
2021/03/27 05:28:41;;;;;;;6.00;1.65;;;5.70;99.90;;;;;;5047957;28;20033;-79
2021/03/27 05:31:47;;;;;;;4.68;1.23;;;5.70;99.90;;;;;;5064307;28;20037;-80
2021/03/27 05:34:37;;;;;;;8.65;1.38;;;5.60;99.90;;;;;;5063788;28;20033;-80
2021/03/27 05:37:18;;;;;;;8.38;1.63;;;5.70;99.90;;;;;;5064059;28;20036;-80
2021/03/27 05:40:01;;;;;;;11.15;2.15;;;5.70;99.90;;;;;;5014165;28;22274;-80
2021/03/27 05:43:33;;;;;;;12.75;1.67;;;5.60;99.90;;;;;;5045057;28;20111;-80
2021/03/27 05:46:11;;;;;;;9.95;1.35;;;5.50;99.90;;;;;;5013500;28;20034;-81
2021/03/27 05:49:11;;;;;;;5.93;1.00;;;4.90;99.90;;;;;;5015736;28;20030;-80
2021/03/27 05:52:12;;;;;;;6.43;0.73;;;4.80;99.90;;;;;;5032492;28;20048;-81
2021/03/27 05:54:43;;;;;;;5.20;0.70;;;4.50;99.90;;;;;;5058371;28;20037;-80
2021/03/27 05:57:24;;;;;;;5.07;1.00;;;4.40;99.90;;;;;;5067266;28;20540;-80
2021/03/27 06:00:22;;;;;;;5.35;1.15;;;4.40;99.90;;;;;;5059131;28;20035;-81
2021/03/27 06:02:56;;;;;;;3.80;0.50;;;4.40;99.90;;;;;;5059587;28;20045;-80
2021/03/27 06:05:54;;;;;;;6.15;0.90;;;4.40;99.90;;;;;;5069153;28;20025;-79
2021/03/27 06:08:22;;;;;;;8.43;1.10;;;4.40;99.90;;;;;;5021788;28;20060;-80
2021/03/27 06:11:25;;;;;;;7.82;1.00;;;4.50;99.90;;;;;;4989881;28;20038;-80
2021/03/27 06:14:44;;;;;;;8.63;1.38;;;4.60;99.90;;;;;;5006922;28;20113;-80
2021/03/27 06:17:36;;;;;;;9.60;1.40;;;4.70;99.90;;;;;;4996926;28;20517;-80
2021/03/27 06:20:13;;;;;;;8.57;1.08;;;4.90;99.90;;;;;;5022331;28;20050;-81
2021/03/27 06:22:47;;;;;;;4.00;0.90;;;5.00;99.90;;;;;;4987376;28;20502;-81
2021/03/27 06:25:38;;;;;;;9.02;0.80;;;5.00;99.90;;;;;;5016797;28;20045;-80
2021/03/27 06:28:22;;;;;;;;;;;5.00;99.90;;;;;;5024075;28;20045;-81
2021/03/27 06:31:25;;;;;;;5.05;0.60;;;4.70;99.90;;;;;;5018265;28;19909;-80
2021/03/27 06:34:27;;;;;;;2.33;0.40;;;4.20;99.90;;;;;;4994810;28;20042;-80
2021/03/27 06:37:13;;;;;;;2.25;0.30;;;4.10;99.90;;;;;;4994426;28;20425;-80
2021/03/27 06:40:05;;;;;;;3.40;0.30;;;4.10;99.90;;;;;;4983154;28;20125;-81
2021/03/27 06:43:04;;;;;;;2.10;0.20;;;4.10;99.90;;;;;;5002288;28;20045;-81
2021/03/27 06:46:24;;;;;;;3.40;0.32;;;4.00;99.90;;;;;;5031906;28;20037;-80
2021/03/27 06:49:08;;;;;;;3.40;0.33;;;4.00;99.90;;;;;;4999831;28;20129;-80
2021/03/27 06:51:57;;;;;;;6.25;0.40;;;4.00;99.90;;;;;;5000463;28;20038;-79
2021/03/27 06:54:28;;;;;;;6.78;0.30;;;4.10;99.90;;;;;;4996925;28;20078;-80
2021/03/27 06:57:15;;;;;;;2.33;0.30;;;4.10;99.90;;;;;;4997255;28;20061;-80
2021/03/27 06:59:46;;;;;;;5.80;0.55;;;4.20;99.90;;;;;;5000241;28;20053;-80
2021/03/27 07:02:49;;;;;;;6.15;0.20;;;4.20;99.90;;;;;;4997033;28;20066;-80
2021/03/27 07:05:34;;;;;;;3.50;0.30;;;4.30;99.90;;;;;;4999454;28;20041;-80
2021/03/27 07:08:10;;;;;;;5.85;0.30;;;4.30;99.90;;;;;;4956758;29;20055;-80
2021/03/27 07:10:59;;;;;;;3.63;0.55;;;4.30;99.90;;;;;;4952875;29;20151;-80
2021/03/27 07:13:53;;;;;;;5.95;0.50;;;4.30;99.90;;;;;;4953824;29;20035;-81
2021/03/27 07:16:41;;;;;;;1.85;0.32;;;4.30;99.90;;;;;;4943233;29;20137;-81
2021/03/27 07:19:44;;;;;;;2.88;0.28;;;4.40;99.90;;;;;;4946926;29;20140;-81
2021/03/27 07:22:41;;;;;;;6.82;0.40;;;4.50;99.90;;;;;;4947595;28;20107;-81
2021/03/27 07:25:28;;;;;;;2.13;0.30;;;4.60;99.90;;;;;;4974429;28;20388;-81
2021/03/27 07:28:19;;;;;;;2.10;0.73;;;4.60;99.90;;;;;;4976804;28;20035;-81
2021/03/27 07:31:21;;;;;;;3.67;0.30;;;4.80;99.90;;;;;;4966227;28;20073;-81
2021/03/27 07:34:23;;;;;;;3.85;0.30;;;5.10;99.90;;;;;;4965032;28;20032;-81
2021/03/27 07:37:22;;;;;;;4.47;0.30;;;5.30;99.90;;;;;;4976974;28;20038;-81
2021/03/27 07:40:25;;;;;;;3.28;0.30;;;5.40;99.90;;;;;;4935632;28;20074;-81
2021/03/27 07:43:18;;;;;;;6.82;0.30;;;5.50;99.90;;;;;;4952701;28;20046;-81
2021/03/27 07:46:04;;;;;;;5.85;0.40;;;5.90;99.90;;;;;;5019079;28;20037;-81
2021/03/27 07:48:48;;;;;;;4.38;0.40;;;5.90;99.90;;;;;;5038244;28;20037;-81
2021/03/27 07:51:24;;;;;;;6.00;0.38;;;5.90;99.90;;;;;;5066790;28;20080;-80
2021/03/27 07:54:01;;;;;;;5.22;0.50;;;6.20;99.90;;;;;;5048934;28;20036;-81
2021/03/27 07:56:42;;;;;;;6.57;0.50;;;6.50;99.90;;;;;;5069879;28;20033;-80
2021/03/27 07:59:13;;;;;;;7.65;0.47;;;6.30;99.90;;;;;;5048544;28;20102;-81
2021/03/27 08:01:56;;;;;;;5.45;0.40;;;6.20;99.90;;;;;;5065032;28;20064;-82
2021/03/27 08:05:03;;;;;;;7.40;0.47;;;6.00;99.90;;;;;;5064729;28;20465;-81
2021/03/27 08:07:50;;;;;;;4.53;0.40;;;6.10;99.90;;;;;;5065244;28;20052;-81
2021/03/27 08:10:34;;;;;;;4.65;0.52;;;6.20;99.90;;;;;;5065178;28;20037;-81
2021/03/27 08:13:16;;;;;;;4.40;0.45;;;6.10;99.90;;;;;;5064828;28;20083;-81
2021/03/27 08:16:20;;;;;;;8.32;0.60;;;6.30;99.90;;;;;;5048237;28;20040;-81
2021/03/27 08:19:18;;;;;;;3.95;0.50;;;6.20;99.90;;;;;;5061743;28;20053;-81
2021/03/27 08:21:50;;;;;;;4.65;0.40;;;6.20;99.90;;;;;;5044963;28;20111;-81
2021/03/27 08:24:34;;;;;;;8.57;0.60;;;6.20;99.90;;;;;;5061341;28;20033;-81
2021/03/27 08:27:26;;;;;;;8.48;0.45;;;6.00;99.90;;;;;;5061461;28;20025;-81
2021/03/27 08:30:13;;;;;;;6.93;0.82;;;6.00;99.90;;;;;;5060989;28;20033;-81
2021/03/27 08:33:23;;;;;;;9.20;0.63;;;5.80;99.90;;;;;;5044776;28;20442;-81
2021/03/27 08:36:03;;;;;;;;;;;5.80;99.90;;;;;;5061656;28;20026;-81
2021/03/27 08:38:42;;;;;;;8.40;0.40;;;5.80;99.90;;;;;;5028217;28;19909;-81
2021/03/27 08:41:24;;;;;;;10.15;0.60;;;5.70;99.90;;;;;;5061239;28;20052;-81
2021/03/27 08:44:20;;;;;;;5.63;0.32;;;5.60;99.90;;;;;;5061143;28;20121;-81
2021/03/27 08:47:12;;;;;;;4.97;0.50;;;5.20;99.90;;;;;;5046188;28;20044;-81
2021/03/27 08:49:57;;;;;;;2.65;0.28;;;4.50;99.90;;;;;;5062067;28;20113;-81
2021/03/27 08:53:16;;;;;;;3.47;0.30;;;4.50;99.90;;;;;;5080672;28;20105;-81
2021/03/27 08:55:47;;;;;;;4.27;0.20;;;4.40;99.90;;;;;;5004009;28;20042;-81
2021/03/27 08:58:38;;;;;;;2.28;0.10;;;4.40;99.90;;;;;;5045147;28;20041;-81
2021/03/27 09:01:25;;;;;;;1.58;0.20;;;4.40;99.90;;;;;;5064253;28;20154;-81
2021/03/27 09:04:28;;;;;;;1.58;0.20;;;4.40;99.90;;;;;;5063983;28;20029;-81
2021/03/27 09:07:22;;;;;;;5.07;0.20;;;4.60;99.90;;;;;;5065149;28;20503;-81
2021/03/27 09:10:08;;;;;;;5.28;0.25;;;5.00;99.90;;;;;;5064192;28;20033;-81
2021/03/27 09:12:55;;;;;;;3.97;0.20;;;5.60;99.90;;;;;;5080926;28;20397;-81
2021/03/27 09:15:39;;;;;;;3.47;0.20;;;5.70;99.90;;;;;;5063943;28;20025;-81
2021/03/27 09:18:17;;;;;;;1.70;0.20;;;6.00;99.90;;;;;;5080814;28;20171;-81
2021/03/27 09:21:04;;;;;;;2.30;0.17;;;6.20;99.90;;;;;;5047244;28;20045;-81
2021/03/27 09:24:07;;;;;;;2.13;0.13;;;6.10;99.90;;;;;;5047331;28;20489;-81
2021/03/27 09:27:16;;;;;;;5.03;0.20;;;6.00;99.90;;;;;;5047549;28;20499;-81
2021/03/27 09:29:47;;;;;;;5.13;0.50;;;5.70;99.90;;;;;;5000424;28;20051;-81
2021/03/27 09:32:50;;;;;;;3.97;0.40;;;5.60;99.90;;;;;;5047282;28;20037;-81
2021/03/27 09:35:39;;;;;;;7.47;0.35;;;5.60;99.90;;;;;;5046393;28;20029;-81
2021/03/27 09:38:15;;;;;;;5.45;0.95;;;6.00;99.90;;;;;;5047370;28;20037;-81
2021/03/27 09:41:01;;;;;;;3.88;0.30;;;6.00;99.90;;;;;;5046993;28;20044;-81
2021/03/27 09:43:39;;;;;;;4.10;0.30;;;6.70;99.90;;;;;;5047068;28;20449;-81
2021/03/27 09:46:23;;;;;;;6.25;0.45;;;7.00;99.90;;;;;;5063683;28;20040;-81
2021/03/27 09:49:18;;;;;;;7.43;0.40;;;7.20;99.90;;;;;;5047016;28;20104;-81
2021/03/27 09:52:25;;;;;;;13.75;0.50;;;7.30;99.90;;;;;;5046847;28;20100;-81
2021/03/27 09:55:06;;;;;;;8.85;0.50;;;7.40;99.90;;;;;;5080133;28;20063;-81
2021/03/27 09:58:00;;;;;;;6.03;0.55;;;7.80;99.90;;;;;;5080361;28;20476;-81
2021/03/27 10:00:48;;;;;;;8.35;0.52;;;7.70;99.90;;;;;;5080356;28;20044;-81
2021/03/27 10:03:29;;;;;;;10.05;1.00;;;7.60;99.90;;;;;;5079901;28;20036;-81
2021/03/27 10:06:09;;;;;;;7.72;0.60;;;8.00;99.90;;;;;;5080202;28;20039;-81
2021/03/27 10:09:13;;;;;;;14.30;0.90;;;8.50;99.90;;;;;;5063567;28;20474;-81
2021/03/27 10:11:41;;;;;;;6.93;0.38;;;8.10;99.90;;;;;;5063420;28;20064;-81
2021/03/27 10:14:18;;;;;;;4.28;0.38;;;7.30;99.90;;;;;;5079925;28;20040;-81
2021/03/27 10:16:49;;;;;;;5.28;0.57;;;7.10;99.90;;;;;;5079983;28;20063;-81
2021/03/27 10:19:18;;;;;;;6.70;0.35;;;7.60;99.90;;;;;;5046488;28;20067;-80
2021/03/27 10:21:47;;;;;;;7.88;0.40;;;7.50;99.90;;;;;;5046610;28;20048;-81
2021/03/27 10:24:18;;;;;;;3.58;0.30;;;7.80;99.90;;;;;;5064455;28;20078;-80
2021/03/27 10:27:07;;;;;;;7.70;0.43;;;8.00;99.90;;;;;;5063214;28;20033;-80
2021/03/27 10:29:46;;;;;;;8.35;0.52;;;8.20;99.90;;;;;;5063147;28;20043;-81
2021/03/27 10:32:39;;;;;;;6.97;0.30;;;8.30;99.90;;;;;;5046496;28;20571;-81
2021/03/27 10:35:36;;;;;;;11.75;0.70;;;8.20;99.90;;;;;;5062647;28;20052;-81
2021/03/27 10:38:05;;;;;;;6.07;0.50;;;8.20;99.90;;;;;;5046548;28;20029;-81
2021/03/27 10:40:46;;;;;;;6.40;0.25;;;8.60;99.90;;;;;;5062950;28;20033;-80
2021/03/27 10:43:23;;;;;;;5.97;0.50;;;8.60;99.90;;;;;;5063053;28;20049;-80
2021/03/27 10:46:03;;;;;;;4.90;0.50;;;8.80;99.90;;;;;;5064043;28;20025;-81
2021/03/27 10:48:41;;;;;;;5.55;0.63;;;9.00;99.90;;;;;;5066768;28;20033;-81
2021/03/27 10:51:31;;;;;;;4.70;0.30;;;8.80;99.90;;;;;;5049886;28;20029;-81
2021/03/27 10:54:35;;;;;;;9.45;0.38;;;8.60;99.90;;;;;;5083438;28;20112;-82
2021/03/27 10:57:14;;;;;;;5.97;0.40;;;8.50;99.90;;;;;;5066606;28;20058;-81
2021/03/27 11:00:09;;;;;;;10.23;0.38;;;8.60;99.90;;;;;;5066473;28;20441;-82
2021/03/27 11:02:51;;;;;;;5.72;0.35;;;8.80;99.90;;;;;;5083259;28;20496;-81
2021/03/27 11:05:40;;;;;;;4.13;0.45;;;9.10;99.90;;;;;;5082830;28;20029;-80
2021/03/27 11:08:30;;;;;;;4.40;0.30;;;9.00;99.90;;;;;;4969986;28;20042;-81
2021/03/27 11:11:09;;;;;;;4.22;0.38;;;8.70;99.90;;;;;;4970086;28;20061;-81
2021/03/27 11:13:43;;;;;;;5.75;0.28;;;9.00;99.90;;;;;;4970071;28;20042;-81
2021/03/27 11:16:45;;;;;;;5.18;0.30;;;8.90;99.90;;;;;;4986212;28;20130;-82
2021/03/27 11:19:45;;;;;;;6.22;0.40;;;8.50;99.90;;;;;;4970308;28;20053;-81
2021/03/27 11:22:16;;;;;;;6.60;0.30;;;8.50;99.90;;;;;;4969849;28;20043;-80
2021/03/27 11:25:11;;;;;;;6.40;1.38;;;8.60;99.90;;;;;;4985977;28;20140;-80
2021/03/27 11:28:08;;;;;;;4.75;0.40;;;9.10;99.90;;;;;;4969897;28;20038;-80
2021/03/27 11:31:00;;;;;;;8.02;0.60;;;8.80;99.90;;;;;;4969796;28;20027;-81
2021/03/27 11:33:50;;;;;;;5.28;0.40;;;8.70;99.90;;;;;;4970827;28;20043;-80
2021/03/27 11:36:45;;;;;;;5.63;0.30;;;9.20;99.90;;;;;;4969513;28;20038;-81
2021/03/27 11:39:18;;;;;;;7.32;0.50;;;9.50;99.90;;;;;;4983899;28;20237;-80
2021/03/27 11:42:25;;;;;;;6.85;0.93;;;9.70;99.90;;;;;;4985797;28;20086;-80
2021/03/27 11:45:08;;;;;;;5.07;0.50;;;9.90;99.90;;;;;;5001697;28;20100;-80
2021/03/27 11:47:43;;;;;;;4.07;0.30;;;9.70;99.90;;;;;;5049278;28;20032;-81
2021/03/27 11:50:34;;;;;;;7.05;0.40;;;10.30;99.90;;;;;;5065424;28;20035;-81
2021/03/27 11:53:08;;;;;;;6.95;0.32;;;9.80;99.90;;;;;;5082065;28;20025;-81
2021/03/27 11:55:40;;;;;;;9.25;0.50;;;8.90;99.90;;;;;;5082186;28;20033;-80
2021/03/27 11:58:27;;;;;;;4.65;0.40;;;8.70;99.90;;;;;;5066447;28;20027;-80
2021/03/27 12:01:03;;;;;;;4.68;0.30;;;8.50;99.90;;;;;;5081933;28;20052;-80
2021/03/27 12:03:44;;;;;;;5.45;0.60;;;8.30;99.90;;;;;;5082003;28;20515;-80
2021/03/27 12:06:33;;;;;;;6.72;0.98;;;8.20;99.90;;;;;;5081708;28;20029;-81
2021/03/27 12:09:20;;;;;;;3.80;0.35;;;8.30;99.90;;;;;;5082060;28;20093;-81
2021/03/27 12:11:52;;;;;;;5.28;0.73;;;8.20;99.90;;;;;;5081851;28;20037;-81
2021/03/27 12:14:33;;;;;;;3.58;0.30;;;7.80;99.90;;;;;;5081776;28;20036;-80
2021/03/27 12:17:05;;;;;;;4.63;0.30;;;7.60;99.90;;;;;;5081782;28;20033;-81
2021/03/27 12:19:33;;;;;;;4.40;0.30;;;7.40;99.90;;;;;;5065438;28;20025;-81
2021/03/27 12:22:27;;;;;;;3.70;0.30;;;7.70;99.90;;;;;;5048230;28;20549;-81
2021/03/27 12:25:13;;;;;;;6.63;1.05;;;8.30;99.90;;;;;;5042298;28;20108;-81
2021/03/27 12:27:44;;;;;;;8.93;0.50;;;8.30;99.90;;;;;;5048230;28;20029;-81
2021/03/27 12:30:45;;;;;;;6.05;0.38;;;8.30;99.90;;;;;;5048381;28;20029;-80
2021/03/27 12:33:45;;;;;;;3.60;0.40;;;8.20;99.90;;;;;;5048204;28;20029;-80
2021/03/27 12:36:19;;;;;;;7.88;0.47;;;8.00;99.90;;;;;;5048046;28;20021;-81
2021/03/27 12:39:07;;;;;;;7.50;0.68;;;8.00;99.90;;;;;;5064882;28;20032;-81
2021/03/27 12:41:48;;;;;;;6.53;0.40;;;7.70;99.90;;;;;;5064478;28;20041;-80
2021/03/27 12:44:32;;;;;;;4.43;0.30;;;7.40;99.90;;;;;;5048078;28;20029;-81
2021/03/27 12:47:23;;;;;;;7.70;0.40;;;6.90;99.90;;;;;;5064570;28;20025;-81
2021/03/27 12:50:03;;;;;;;5.35;0.90;;;6.30;99.90;;;;;;5048041;28;20040;-81
2021/03/27 12:52:59;;;;;;;8.45;0.70;;;6.00;99.90;;;;;;5047716;28;20060;-81
2021/03/27 12:56:07;;;;;;;5.32;0.47;;;6.00;99.90;;;;;;5081511;28;20079;-81
2021/03/27 12:58:56;;;;;;;5.97;0.50;;;6.30;99.90;;;;;;5081344;28;20136;-81
2021/03/27 13:02:06;;;;;;;11.52;0.60;;;6.90;99.90;;;;;;5080930;28;20060;-80
2021/03/27 13:04:54;;;;;;;8.13;0.50;;;7.50;99.90;;;;;;5080981;28;20535;-80
2021/03/27 13:07:27;;;;;;;8.25;0.50;;;8.30;99.90;;;;;;5080412;28;20060;-80
2021/03/27 13:10:06;;;;;;;13.23;0.60;;;8.20;99.90;;;;;;5080102;28;20041;-81
2021/03/27 13:12:41;;;;;;;10.27;0.68;;;8.50;99.90;;;;;;5080714;28;20047;-80
2021/03/27 13:15:22;;;;;;;7.03;0.40;;;8.20;99.90;;;;;;5080850;28;20095;-80
2021/03/27 13:18:00;;;;;;;6.80;0.50;;;8.00;99.90;;;;;;5067209;28;20037;-80
2021/03/27 13:20:47;;;;;;;5.22;0.60;;;7.50;99.90;;;;;;5063845;28;20469;-80
2021/03/27 13:23:27;;;;;;;4.00;0.43;;;7.40;99.90;;;;;;5047008;28;20033;-80
2021/03/27 13:25:57;;;;;;;7.20;0.60;;;7.40;99.90;;;;;;5047301;28;20131;-80
2021/03/27 13:28:44;;;;;;;4.47;1.25;;;7.60;99.90;;;;;;5064111;28;20044;-80
2021/03/27 13:31:17;;;;;;;5.60;0.60;;;7.30;99.90;;;;;;5063895;28;20037;-80
2021/03/27 13:34:21;;;;;;;5.47;0.77;;;7.20;99.90;;;;;;5046952;28;20377;-80
2021/03/27 13:36:58;;;;;;;9.27;0.70;;;7.60;99.90;;;;;;5061838;28;20033;-80
2021/03/27 13:39:28;;;;;;;3.80;0.75;;;8.20;99.90;;;;;;5047016;28;20029;-80
2021/03/27 13:42:05;;;;;;;9.00;0.70;;;7.90;99.90;;;;;;5064855;28;20041;-80
2021/03/27 13:44:55;;;;;;;6.82;0.65;;;8.00;99.90;;;;;;5046973;28;20442;-80
2021/03/27 13:47:40;;;;;;;7.13;0.73;;;8.00;99.90;;;;;;5063775;28;20028;-81
2021/03/27 13:50:05;;;;;;;12.38;0.68;;;8.50;99.90;;;;;;5063568;28;20032;-80
2021/03/27 13:52:39;;;;;;;8.30;0.50;;;9.50;99.90;;;;;;5046871;28;20036;-81
2021/03/27 13:55:17;;;;;;;12.75;0.68;;;9.60;99.90;;;;;;5080048;28;20029;-80
2021/03/27 13:58:18;;;;;;;7.00;0.55;;;9.60;99.90;;;;;;5080564;28;20057;-80
2021/03/27 14:01:08;;;;;;;8.70;0.40;;;9.60;99.90;;;;;;5063763;28;20040;-81
2021/03/27 14:03:45;;;;;;;;;;;9.50;99.90;;;;;;5052490;28;20061;-81
2021/03/27 14:06:18;;;;;;;9.40;0.65;;;9.40;99.90;;;;;;5079982;28;19909;-81
2021/03/27 14:09:02;;;;;;;8.48;0.70;;;9.40;99.90;;;;;;5080116;28;20021;-80
2021/03/27 14:11:35;;;;;;;6.50;0.43;;;9.80;99.90;;;;;;5080142;28;20056;-81
2021/03/27 14:14:10;;;;;;;5.15;0.73;;;9.50;99.90;;;;;;5079941;28;20041;-80
2021/03/27 14:16:43;;;;;;;8.15;0.43;;;9.40;99.90;;;;;;5076553;28;20261;-80
2021/03/27 14:19:23;;;;;;;10.75;0.60;;;8.90;99.90;;;;;;5046663;28;20033;-81
2021/03/27 14:22:26;;;;;;;6.93;0.50;;;8.80;99.90;;;;;;5049402;28;20566;-81
2021/03/27 14:25:10;;;;;;;5.00;0.52;;;8.50;99.90;;;;;;5050170;28;20057;-80
2021/03/27 14:27:55;;;;;;;8.07;0.57;;;8.80;99.90;;;;;;5067414;28;20147;-80
2021/03/27 14:30:48;;;;;;;7.60;0.55;;;9.50;99.90;;;;;;5067425;28;20037;-80
2021/03/27 14:33:40;;;;;;;8.30;0.30;;;9.50;99.90;;;;;;5051136;28;20052;-80